sensor_id;sensor_type;location;lat;lon;timestamp;P1;durP1;ratioP1;P2;durP2;ratioP2
62574;SDS011;53112;45.602;11.904;2022-12-18T00:01:56;12.30;;;7.53;;
62574;SDS011;53112;45.602;11.904;2022-12-18T00:04:24;11.77;;;7.80;;
62574;SDS011;53112;45.602;11.904;2022-12-18T00:06:51;12.18;;;7.70;;
62574;SDS011;53112;45.602;11.904;2022-12-18T00:09:18;10.30;;;6.90;;
62574;SDS011;53112;45.602;11.904;2022-12-18T00:11:44;11.23;;;7.07;;
62574;SDS011;53112;45.602;11.904;2022-12-18T00:14:10;10.43;;;7.03;;
62574;SDS011;53112;45.602;11.904;2022-12-18T00:16:38;11.93;;;7.30;;
62574;SDS011;53112;45.602;11.904;2022-12-18T00:19:05;12.40;;;7.15;;
62574;SDS011;53112;45.602;11.904;2022-12-18T00:21:32;11.02;;;7.05;;
62574;SDS011;53112;45.602;11.904;2022-12-18T00:23:59;10.45;;;6.93;;
62574;SDS011;53112;45.602;11.904;2022-12-18T00:26:26;10.82;;;7.35;;
62574;SDS011;53112;45.602;11.904;2022-12-18T00:29:01;12.48;;;7.30;;
62574;SDS011;53112;45.602;11.904;2022-12-18T00:31:29;11.30;;;7.13;;
62574;SDS011;53112;45.602;11.904;2022-12-18T00:33:56;10.82;;;7.10;;
62574;SDS011;53112;45.602;11.904;2022-12-18T00:36:24;13.35;;;7.28;;
62574;SDS011;53112;45.602;11.904;2022-12-18T00:38:55;11.77;;;7.47;;
62574;SDS011;53112;45.602;11.904;2022-12-18T00:41:23;10.48;;;6.93;;
62574;SDS011;53112;45.602;11.904;2022-12-18T00:44:09;12.18;;;7.45;;
62574;SDS011;53112;45.602;11.904;2022-12-18T00:46:37;12.73;;;7.55;;
62574;SDS011;53112;45.602;11.904;2022-12-18T00:49:03;13.05;;;8.35;;
62574;SDS011;53112;45.602;11.904;2022-12-18T00:51:29;11.40;;;7.05;;
62574;SDS011;53112;45.602;11.904;2022-12-18T00:53:55;11.70;;;7.38;;
62574;SDS011;53112;45.602;11.904;2022-12-18T00:56:21;12.65;;;7.72;;
62574;SDS011;53112;45.602;11.904;2022-12-18T00:58:48;11.75;;;7.57;;
62574;SDS011;53112;45.602;11.904;2022-12-18T01:01:14;11.90;;;7.53;;
62574;SDS011;53112;45.602;11.904;2022-12-18T01:03:40;12.43;;;7.40;;
62574;SDS011;53112;45.602;11.904;2022-12-18T01:06:06;10.88;;;7.60;;
62574;SDS011;53112;45.602;11.904;2022-12-18T01:08:34;11.48;;;7.50;;
62574;SDS011;53112;45.602;11.904;2022-12-18T01:11:01;11.27;;;7.05;;
62574;SDS011;53112;45.602;11.904;2022-12-18T01:15:58;10.82;;;6.50;;
62574;SDS011;53112;45.602;11.904;2022-12-18T01:18:24;11.07;;;7.38;;
62574;SDS011;53112;45.602;11.904;2022-12-18T01:20:50;12.07;;;7.13;;
62574;SDS011;53112;45.602;11.904;2022-12-18T01:23:15;12.23;;;6.90;;
62574;SDS011;53112;45.602;11.904;2022-12-18T01:25:41;11.68;;;7.00;;
62574;SDS011;53112;45.602;11.904;2022-12-18T01:28:07;11.90;;;7.03;;
62574;SDS011;53112;45.602;11.904;2022-12-18T01:30:33;10.98;;;6.80;;
62574;SDS011;53112;45.602;11.904;2022-12-18T01:32:58;11.07;;;6.57;;
62574;SDS011;53112;45.602;11.904;2022-12-18T01:35:24;10.60;;;6.53;;
62574;SDS011;53112;45.602;11.904;2022-12-18T01:37:54;11.82;;;6.95;;
62574;SDS011;53112;45.602;11.904;2022-12-18T01:40:20;11.48;;;6.75;;
62574;SDS011;53112;45.602;11.904;2022-12-18T01:42:52;11.32;;;7.03;;
62574;SDS011;53112;45.602;11.904;2022-12-18T01:47:52;11.05;;;6.82;;
62574;SDS011;53112;45.602;11.904;2022-12-18T01:50:31;13.52;;;7.22;;
62574;SDS011;53112;45.602;11.904;2022-12-18T01:55:34;10.68;;;6.90;;
62574;SDS011;53112;45.602;11.904;2022-12-18T01:58:11;11.05;;;6.55;;
62574;SDS011;53112;45.602;11.904;2022-12-18T02:00:37;10.70;;;6.95;;
62574;SDS011;53112;45.602;11.904;2022-12-18T02:03:04;11.50;;;6.60;;
62574;SDS011;53112;45.602;11.904;2022-12-18T02:05:54;10.98;;;6.75;;
62574;SDS011;53112;45.602;11.904;2022-12-18T02:19:35;11.52;;;7.35;;
62574;SDS011;53112;45.602;11.904;2022-12-18T02:28:15;11.07;;;6.63;;
62574;SDS011;53112;45.602;11.904;2022-12-18T02:30:45;12.60;;;7.22;;
62574;SDS011;53112;45.602;11.904;2022-12-18T02:33:14;11.38;;;6.80;;
62574;SDS011;53112;45.602;11.904;2022-12-18T02:35:41;11.23;;;6.70;;
62574;SDS011;53112;45.602;11.904;2022-12-18T02:38:08;11.18;;;7.45;;
62574;SDS011;53112;45.602;11.904;2022-12-18T02:40:36;11.05;;;6.97;;
62574;SDS011;53112;45.602;11.904;2022-12-18T02:43:07;11.15;;;6.88;;
62574;SDS011;53112;45.602;11.904;2022-12-18T02:45:52;12.57;;;6.70;;
62574;SDS011;53112;45.602;11.904;2022-12-18T02:48:24;11.00;;;6.57;;
62574;SDS011;53112;45.602;11.904;2022-12-18T02:58:56;10.90;;;6.28;;
62574;SDS011;53112;45.602;11.904;2022-12-18T03:04:57;11.55;;;7.13;;
62574;SDS011;53112;45.602;11.904;2022-12-18T03:06:57;9.73;;;6.30;;
62574;SDS011;53112;45.602;11.904;2022-12-18T03:09:32;10.13;;;6.10;;
62574;SDS011;53112;45.602;11.904;2022-12-18T03:12:04;9.95;;;6.45;;
62574;SDS011;53112;45.602;11.904;2022-12-18T03:14:55;10.55;;;6.30;;
62574;SDS011;53112;45.602;11.904;2022-12-18T03:17:27;10.48;;;6.55;;
62574;SDS011;53112;45.602;11.904;2022-12-18T03:19:56;10.45;;;6.00;;
62574;SDS011;53112;45.602;11.904;2022-12-18T03:22:25;9.55;;;5.90;;
62574;SDS011;53112;45.602;11.904;2022-12-18T03:24:54;10.88;;;6.32;;
62574;SDS011;53112;45.602;11.904;2022-12-18T03:27:22;11.80;;;6.05;;
62574;SDS011;53112;45.602;11.904;2022-12-18T03:30:01;11.07;;;6.57;;
62574;SDS011;53112;45.602;11.904;2022-12-18T03:32:38;10.43;;;6.18;;
62574;SDS011;53112;45.602;11.904;2022-12-18T03:35:05;10.95;;;6.10;;
62574;SDS011;53112;45.602;11.904;2022-12-18T03:37:33;10.00;;;6.28;;
62574;SDS011;53112;45.602;11.904;2022-12-18T03:39:59;10.55;;;6.03;;
62574;SDS011;53112;45.602;11.904;2022-12-18T03:42:27;11.23;;;6.70;;
62574;SDS011;53112;45.602;11.904;2022-12-18T03:45:02;11.20;;;6.90;;
62574;SDS011;53112;45.602;11.904;2022-12-18T03:47:37;10.95;;;6.22;;
62574;SDS011;53112;45.602;11.904;2022-12-18T03:50:11;10.18;;;6.32;;
62574;SDS011;53112;45.602;11.904;2022-12-18T03:53:00;11.85;;;6.82;;
62574;SDS011;53112;45.602;11.904;2022-12-18T03:55:29;12.32;;;6.53;;
62574;SDS011;53112;45.602;11.904;2022-12-18T03:57:58;10.55;;;6.35;;
62574;SDS011;53112;45.602;11.904;2022-12-18T04:00:27;12.63;;;7.22;;
62574;SDS011;53112;45.602;11.904;2022-12-18T04:02:55;9.40;;;6.20;;
62574;SDS011;53112;45.602;11.904;2022-12-18T04:05:22;10.25;;;6.25;;
62574;SDS011;53112;45.602;11.904;2022-12-18T04:07:50;10.10;;;6.20;;
62574;SDS011;53112;45.602;11.904;2022-12-18T04:10:19;10.60;;;6.47;;
62574;SDS011;53112;45.602;11.904;2022-12-18T04:12:44;11.55;;;6.38;;
62574;SDS011;53112;45.602;11.904;2022-12-18T04:15:11;10.90;;;6.18;;
62574;SDS011;53112;45.602;11.904;2022-12-18T04:17:37;11.25;;;7.05;;
62574;SDS011;53112;45.602;11.904;2022-12-18T04:20:08;10.18;;;6.22;;
62574;SDS011;53112;45.602;11.904;2022-12-18T04:22:34;10.93;;;6.68;;
62574;SDS011;53112;45.602;11.904;2022-12-18T04:25:00;11.07;;;6.70;;
62574;SDS011;53112;45.602;11.904;2022-12-18T04:27:26;11.52;;;6.85;;
62574;SDS011;53112;45.602;11.904;2022-12-18T04:29:52;10.43;;;6.07;;
62574;SDS011;53112;45.602;11.904;2022-12-18T04:32:17;9.95;;;6.15;;
62574;SDS011;53112;45.602;11.904;2022-12-18T04:34:43;11.10;;;6.40;;
62574;SDS011;53112;45.602;11.904;2022-12-18T04:37:09;11.35;;;6.55;;
62574;SDS011;53112;45.602;11.904;2022-12-18T04:39:36;12.00;;;6.88;;
62574;SDS011;53112;45.602;11.904;2022-12-18T04:42:02;10.80;;;6.20;;
62574;SDS011;53112;45.602;11.904;2022-12-18T04:44:28;11.23;;;6.90;;
62574;SDS011;53112;45.602;11.904;2022-12-18T04:46:53;11.23;;;6.40;;
62574;SDS011;53112;45.602;11.904;2022-12-18T04:49:24;10.85;;;6.78;;
62574;SDS011;53112;45.602;11.904;2022-12-18T04:51:50;12.57;;;6.63;;
62574;SDS011;53112;45.602;11.904;2022-12-18T04:54:17;13.45;;;7.53;;
62574;SDS011;53112;45.602;11.904;2022-12-18T04:56:45;11.90;;;7.35;;
62574;SDS011;53112;45.602;11.904;2022-12-18T04:59:12;14.30;;;7.70;;
62574;SDS011;53112;45.602;11.904;2022-12-18T05:01:38;12.50;;;7.15;;
62574;SDS011;53112;45.602;11.904;2022-12-18T05:04:04;14.32;;;7.60;;
62574;SDS011;53112;45.602;11.904;2022-12-18T05:06:30;12.13;;;7.00;;
62574;SDS011;53112;45.602;11.904;2022-12-18T05:08:56;12.75;;;7.07;;
62574;SDS011;53112;45.602;11.904;2022-12-18T05:11:22;11.77;;;7.13;;
62574;SDS011;53112;45.602;11.904;2022-12-18T05:13:48;11.27;;;7.00;;
62574;SDS011;53112;45.602;11.904;2022-12-18T05:16:14;11.07;;;7.05;;
62574;SDS011;53112;45.602;11.904;2022-12-18T05:18:40;10.75;;;6.63;;
62574;SDS011;53112;45.602;11.904;2022-12-18T05:21:06;10.98;;;6.65;;
62574;SDS011;53112;45.602;11.904;2022-12-18T05:23:35;11.02;;;6.60;;
62574;SDS011;53112;45.602;11.904;2022-12-18T05:26:02;13.60;;;7.70;;
62574;SDS011;53112;45.602;11.904;2022-12-18T05:28:30;11.70;;;7.80;;
62574;SDS011;53112;45.602;11.904;2022-12-18T05:30:58;11.40;;;6.85;;
62574;SDS011;53112;45.602;11.904;2022-12-18T05:33:26;11.90;;;7.03;;
62574;SDS011;53112;45.602;11.904;2022-12-18T05:35:55;14.00;;;7.30;;
62574;SDS011;53112;45.602;11.904;2022-12-18T05:38:23;10.45;;;6.68;;
62574;SDS011;53112;45.602;11.904;2022-12-18T05:40:51;12.27;;;7.43;;
62574;SDS011;53112;45.602;11.904;2022-12-18T05:43:18;11.73;;;7.03;;
62574;SDS011;53112;45.602;11.904;2022-12-18T05:45:46;13.13;;;7.55;;
62574;SDS011;53112;45.602;11.904;2022-12-18T05:48:13;14.15;;;8.30;;
62574;SDS011;53112;45.602;11.904;2022-12-18T05:50:40;14.15;;;8.18;;
62574;SDS011;53112;45.602;11.904;2022-12-18T05:53:07;14.18;;;7.80;;
62574;SDS011;53112;45.602;11.904;2022-12-18T05:55:36;13.95;;;7.20;;
62574;SDS011;53112;45.602;11.904;2022-12-18T05:58:04;13.43;;;8.05;;
62574;SDS011;53112;45.602;11.904;2022-12-18T06:00:32;14.50;;;8.57;;
62574;SDS011;53112;45.602;11.904;2022-12-18T06:03:00;14.35;;;7.50;;
62574;SDS011;53112;45.602;11.904;2022-12-18T06:05:26;12.40;;;7.60;;
62574;SDS011;53112;45.602;11.904;2022-12-18T06:07:51;12.38;;;7.03;;
62574;SDS011;53112;45.602;11.904;2022-12-18T06:10:17;12.55;;;7.15;;
62574;SDS011;53112;45.602;11.904;2022-12-18T06:12:43;12.75;;;7.82;;
62574;SDS011;53112;45.602;11.904;2022-12-18T06:15:09;13.20;;;7.88;;
62574;SDS011;53112;45.602;11.904;2022-12-18T06:17:35;14.48;;;8.60;;
62574;SDS011;53112;45.602;11.904;2022-12-18T06:20:02;13.10;;;8.07;;
62574;SDS011;53112;45.602;11.904;2022-12-18T06:22:30;12.05;;;8.00;;
62574;SDS011;53112;45.602;11.904;2022-12-18T06:24:57;14.27;;;7.57;;
62574;SDS011;53112;45.602;11.904;2022-12-18T06:27:24;13.20;;;7.68;;
62574;SDS011;53112;45.602;11.904;2022-12-18T06:29:50;11.30;;;7.30;;
62574;SDS011;53112;45.602;11.904;2022-12-18T06:32:16;11.90;;;7.60;;
62574;SDS011;53112;45.602;11.904;2022-12-18T06:34:42;12.30;;;7.22;;
62574;SDS011;53112;45.602;11.904;2022-12-18T06:37:07;13.80;;;8.13;;
62574;SDS011;53112;45.602;11.904;2022-12-18T06:39:33;13.32;;;8.13;;
62574;SDS011;53112;45.602;11.904;2022-12-18T06:41:59;14.52;;;8.48;;
62574;SDS011;53112;45.602;11.904;2022-12-18T06:44:25;12.60;;;7.70;;
62574;SDS011;53112;45.602;11.904;2022-12-18T06:46:50;13.13;;;8.10;;
62574;SDS011;53112;45.602;11.904;2022-12-18T06:49:16;14.52;;;8.80;;
62574;SDS011;53112;45.602;11.904;2022-12-18T06:51:42;16.23;;;8.88;;
62574;SDS011;53112;45.602;11.904;2022-12-18T06:54:08;11.82;;;7.35;;
62574;SDS011;53112;45.602;11.904;2022-12-18T06:56:34;12.52;;;7.95;;
62574;SDS011;53112;45.602;11.904;2022-12-18T06:59:00;12.93;;;8.02;;
62574;SDS011;53112;45.602;11.904;2022-12-18T07:01:25;13.73;;;8.32;;
62574;SDS011;53112;45.602;11.904;2022-12-18T07:03:52;14.27;;;7.85;;
62574;SDS011;53112;45.602;11.904;2022-12-18T07:06:20;14.50;;;8.32;;
62574;SDS011;53112;45.602;11.904;2022-12-18T07:08:48;15.68;;;9.07;;
62574;SDS011;53112;45.602;11.904;2022-12-18T07:11:16;15.73;;;8.80;;
62574;SDS011;53112;45.602;11.904;2022-12-18T07:13:43;16.13;;;8.93;;
62574;SDS011;53112;45.602;11.904;2022-12-18T07:16:10;14.05;;;8.40;;
62574;SDS011;53112;45.602;11.904;2022-12-18T07:18:38;16.73;;;9.32;;
62574;SDS011;53112;45.602;11.904;2022-12-18T07:21:08;15.85;;;9.60;;
62574;SDS011;53112;45.602;11.904;2022-12-18T07:23:36;16.67;;;9.55;;
62574;SDS011;53112;45.602;11.904;2022-12-18T07:26:03;15.60;;;9.00;;
62574;SDS011;53112;45.602;11.904;2022-12-18T07:28:30;14.85;;;8.63;;
62574;SDS011;53112;45.602;11.904;2022-12-18T07:30:57;14.40;;;8.30;;
62574;SDS011;53112;45.602;11.904;2022-12-18T07:33:24;13.40;;;8.32;;
62574;SDS011;53112;45.602;11.904;2022-12-18T07:35:50;17.00;;;9.45;;
62574;SDS011;53112;45.602;11.904;2022-12-18T07:38:16;15.93;;;9.38;;
62574;SDS011;53112;45.602;11.904;2022-12-18T07:40:42;15.55;;;8.85;;
62574;SDS011;53112;45.602;11.904;2022-12-18T07:43:08;17.08;;;9.02;;
62574;SDS011;53112;45.602;11.904;2022-12-18T07:45:33;18.30;;;8.50;;
62574;SDS011;53112;45.602;11.904;2022-12-18T07:47:59;14.13;;;8.23;;
62574;SDS011;53112;45.602;11.904;2022-12-18T07:50:25;15.40;;;8.57;;
62574;SDS011;53112;45.602;11.904;2022-12-18T07:52:51;15.43;;;9.07;;
62574;SDS011;53112;45.602;11.904;2022-12-18T07:55:17;14.50;;;8.82;;
62574;SDS011;53112;45.602;11.904;2022-12-18T07:57:42;16.25;;;9.05;;
62574;SDS011;53112;45.602;11.904;2022-12-18T08:00:08;14.38;;;8.63;;
62574;SDS011;53112;45.602;11.904;2022-12-18T08:02:34;14.23;;;8.70;;
62574;SDS011;53112;45.602;11.904;2022-12-18T08:05:00;13.80;;;8.30;;
62574;SDS011;53112;45.602;11.904;2022-12-18T08:07:26;15.45;;;9.07;;
62574;SDS011;53112;45.602;11.904;2022-12-18T08:09:52;17.55;;;8.85;;
62574;SDS011;53112;45.602;11.904;2022-12-18T08:12:19;17.67;;;9.90;;
62574;SDS011;53112;45.602;11.904;2022-12-18T08:14:45;17.05;;;9.25;;
62574;SDS011;53112;45.602;11.904;2022-12-18T08:17:10;15.65;;;9.80;;
62574;SDS011;53112;45.602;11.904;2022-12-18T08:19:36;15.38;;;8.98;;
62574;SDS011;53112;45.602;11.904;2022-12-18T08:22:02;15.13;;;9.23;;
62574;SDS011;53112;45.602;11.904;2022-12-18T08:24:28;17.42;;;10.27;;
62574;SDS011;53112;45.602;11.904;2022-12-18T08:26:53;16.27;;;9.60;;
62574;SDS011;53112;45.602;11.904;2022-12-18T08:29:19;13.23;;;8.07;;
62574;SDS011;53112;45.602;11.904;2022-12-18T08:31:45;17.38;;;10.05;;
62574;SDS011;53112;45.602;11.904;2022-12-18T08:34:11;14.98;;;8.80;;
62574;SDS011;53112;45.602;11.904;2022-12-18T08:36:37;16.30;;;9.88;;
62574;SDS011;53112;45.602;11.904;2022-12-18T08:39:03;16.60;;;9.50;;
62574;SDS011;53112;45.602;11.904;2022-12-18T08:41:29;13.95;;;8.50;;
62574;SDS011;53112;45.602;11.904;2022-12-18T08:43:54;15.10;;;8.60;;
62574;SDS011;53112;45.602;11.904;2022-12-18T08:46:39;14.68;;;8.63;;
62574;SDS011;53112;45.602;11.904;2022-12-18T08:49:07;18.90;;;9.65;;
62574;SDS011;53112;45.602;11.904;2022-12-18T08:51:34;17.25;;;9.70;;
62574;SDS011;53112;45.602;11.904;2022-12-18T08:54:00;18.58;;;10.35;;
62574;SDS011;53112;45.602;11.904;2022-12-18T08:56:26;15.85;;;9.40;;
62574;SDS011;53112;45.602;11.904;2022-12-18T08:58:52;15.77;;;9.10;;
62574;SDS011;53112;45.602;11.904;2022-12-18T09:01:19;15.40;;;8.82;;
62574;SDS011;53112;45.602;11.904;2022-12-18T09:03:45;18.33;;;10.02;;
62574;SDS011;53112;45.602;11.904;2022-12-18T09:06:14;19.80;;;10.27;;
62574;SDS011;53112;45.602;11.904;2022-12-18T09:08:44;15.88;;;9.25;;
62574;SDS011;53112;45.602;11.904;2022-12-18T09:11:23;15.57;;;8.88;;
62574;SDS011;53112;45.602;11.904;2022-12-18T09:13:51;13.70;;;8.32;;
62574;SDS011;53112;45.602;11.904;2022-12-18T09:16:19;14.63;;;8.30;;
62574;SDS011;53112;45.602;11.904;2022-12-18T09:18:46;13.32;;;8.00;;
62574;SDS011;53112;45.602;11.904;2022-12-18T09:21:16;16.52;;;9.32;;
62574;SDS011;53112;45.602;11.904;2022-12-18T09:23:48;16.27;;;9.10;;
62574;SDS011;53112;45.602;11.904;2022-12-18T09:26:15;16.15;;;9.55;;
62574;SDS011;53112;45.602;11.904;2022-12-18T09:28:41;17.70;;;9.77;;
62574;SDS011;53112;45.602;11.904;2022-12-18T09:31:08;15.95;;;9.55;;
62574;SDS011;53112;45.602;11.904;2022-12-18T09:33:35;16.40;;;9.48;;
62574;SDS011;53112;45.602;11.904;2022-12-18T09:36:03;16.83;;;10.25;;
62574;SDS011;53112;45.602;11.904;2022-12-18T09:38:30;16.08;;;9.10;;
62574;SDS011;53112;45.602;11.904;2022-12-18T09:40:58;13.52;;;8.05;;
62574;SDS011;53112;45.602;11.904;2022-12-18T09:43:41;14.10;;;8.40;;
62574;SDS011;53112;45.602;11.904;2022-12-18T09:46:20;10.90;;;7.30;;
62574;SDS011;53112;45.602;11.904;2022-12-18T09:48:52;11.98;;;7.45;;
62574;SDS011;53112;45.602;11.904;2022-12-18T09:51:22;15.20;;;8.80;;
62574;SDS011;53112;45.602;11.904;2022-12-18T09:54:19;11.90;;;7.40;;
62574;SDS011;53112;45.602;11.904;2022-12-18T09:57:20;11.68;;;7.18;;
62574;SDS011;53112;45.602;11.904;2022-12-18T09:59:59;11.57;;;7.40;;
62574;SDS011;53112;45.602;11.904;2022-12-18T10:02:32;11.02;;;7.20;;
62574;SDS011;53112;45.602;11.904;2022-12-18T10:05:09;12.00;;;7.72;;
62574;SDS011;53112;45.602;11.904;2022-12-18T10:13:06;12.38;;;7.43;;
62574;SDS011;53112;45.602;11.904;2022-12-18T10:19:08;14.02;;;8.55;;
62574;SDS011;53112;45.602;11.904;2022-12-18T10:21:21;15.57;;;9.88;;
62574;SDS011;53112;45.602;11.904;2022-12-18T10:26:45;12.30;;;8.73;;
62574;SDS011;53112;45.602;11.904;2022-12-18T10:29:13;13.95;;;9.13;;
62574;SDS011;53112;45.602;11.904;2022-12-18T10:31:40;12.13;;;7.47;;
62574;SDS011;53112;45.602;11.904;2022-12-18T10:34:10;12.63;;;8.48;;
62574;SDS011;53112;45.602;11.904;2022-12-18T10:36:43;14.30;;;8.77;;
62574;SDS011;53112;45.602;11.904;2022-12-18T10:39:19;13.85;;;9.07;;
62574;SDS011;53112;45.602;11.904;2022-12-18T10:41:47;13.02;;;8.38;;
62574;SDS011;53112;45.602;11.904;2022-12-18T10:44:22;11.80;;;7.75;;
62574;SDS011;53112;45.602;11.904;2022-12-18T10:46:54;12.55;;;7.78;;
62574;SDS011;53112;45.602;11.904;2022-12-18T10:49:31;12.13;;;7.68;;
62574;SDS011;53112;45.602;11.904;2022-12-18T10:52:44;11.90;;;7.53;;
62574;SDS011;53112;45.602;11.904;2022-12-18T10:54:48;11.75;;;7.85;;
62574;SDS011;53112;45.602;11.904;2022-12-18T10:59:59;13.15;;;7.95;;
62574;SDS011;53112;45.602;11.904;2022-12-18T11:02:39;11.48;;;7.05;;
62574;SDS011;53112;45.602;11.904;2022-12-18T11:05:23;13.68;;;8.45;;
62574;SDS011;53112;45.602;11.904;2022-12-18T11:07:50;13.15;;;8.18;;
62574;SDS011;53112;45.602;11.904;2022-12-18T11:10:17;13.32;;;7.63;;
62574;SDS011;53112;45.602;11.904;2022-12-18T11:12:43;12.35;;;7.75;;
62574;SDS011;53112;45.602;11.904;2022-12-18T11:15:19;12.65;;;7.90;;
62574;SDS011;53112;45.602;11.904;2022-12-18T11:17:49;11.13;;;7.95;;
62574;SDS011;53112;45.602;11.904;2022-12-18T11:20:20;12.27;;;8.10;;
62574;SDS011;53112;45.602;11.904;2022-12-18T11:22:57;11.25;;;7.82;;
62574;SDS011;53112;45.602;11.904;2022-12-18T11:25:29;12.55;;;8.15;;
62574;SDS011;53112;45.602;11.904;2022-12-18T11:27:58;13.93;;;8.90;;
62574;SDS011;53112;45.602;11.904;2022-12-18T11:30:47;14.68;;;9.13;;
62574;SDS011;53112;45.602;11.904;2022-12-18T11:33:18;13.13;;;8.10;;
62574;SDS011;53112;45.602;11.904;2022-12-18T11:35:51;12.65;;;7.22;;
62574;SDS011;53112;45.602;11.904;2022-12-18T11:38:21;12.10;;;7.90;;
62574;SDS011;53112;45.602;11.904;2022-12-18T11:40:56;13.43;;;8.70;;
62574;SDS011;53112;45.602;11.904;2022-12-18T11:43:34;12.18;;;7.22;;
62574;SDS011;53112;45.602;11.904;2022-12-18T11:46:08;11.88;;;7.85;;
62574;SDS011;53112;45.602;11.904;2022-12-18T11:48:44;12.15;;;8.10;;
62574;SDS011;53112;45.602;11.904;2022-12-18T11:51:37;12.40;;;7.38;;
62574;SDS011;53112;45.602;11.904;2022-12-18T11:54:12;10.82;;;7.25;;
62574;SDS011;53112;45.602;11.904;2022-12-18T11:56:43;11.30;;;7.50;;
62574;SDS011;53112;45.602;11.904;2022-12-18T12:02:17;14.02;;;8.80;;
62574;SDS011;53112;45.602;11.904;2022-12-18T12:10:06;11.95;;;8.02;;
62574;SDS011;53112;45.602;11.904;2022-12-18T12:13:04;11.93;;;7.15;;
62574;SDS011;53112;45.602;11.904;2022-12-18T12:15:55;10.73;;;7.32;;
62574;SDS011;53112;45.602;11.904;2022-12-18T12:21:06;10.60;;;7.18;;
62574;SDS011;53112;45.602;11.904;2022-12-18T12:23:55;11.18;;;7.07;;
62574;SDS011;53112;45.602;11.904;2022-12-18T12:27:16;11.05;;;7.10;;
62574;SDS011;53112;45.602;11.904;2022-12-18T12:40:51;10.05;;;6.90;;
62574;SDS011;53112;45.602;11.904;2022-12-18T12:46:05;9.90;;;6.78;;
62574;SDS011;53112;45.602;11.904;2022-12-18T12:51:17;10.35;;;6.70;;
62574;SDS011;53112;45.602;11.904;2022-12-18T12:53:57;10.50;;;6.60;;
62574;SDS011;53112;45.602;11.904;2022-12-18T12:56:25;10.45;;;7.53;;
62574;SDS011;53112;45.602;11.904;2022-12-18T12:59:10;11.73;;;7.22;;
62574;SDS011;53112;45.602;11.904;2022-12-18T13:02:16;11.10;;;7.63;;
62574;SDS011;53112;45.602;11.904;2022-12-18T13:05:38;11.33;;;7.00;;
62574;SDS011;53112;45.602;11.904;2022-12-18T13:08:09;11.13;;;7.05;;
62574;SDS011;53112;45.602;11.904;2022-12-18T13:13:12;9.20;;;6.20;;
62574;SDS011;53112;45.602;11.904;2022-12-18T13:15:45;8.90;;;6.40;;
62574;SDS011;53112;45.602;11.904;2022-12-18T13:18:29;9.30;;;6.50;;
62574;SDS011;53112;45.602;11.904;2022-12-18T13:25:53;9.68;;;6.97;;
62574;SDS011;53112;45.602;11.904;2022-12-18T13:31:12;9.18;;;6.63;;
62574;SDS011;53112;45.602;11.904;2022-12-18T13:33:44;10.80;;;6.47;;
62574;SDS011;53112;45.602;11.904;2022-12-18T13:41:42;10.55;;;7.30;;
62574;SDS011;53112;45.602;11.904;2022-12-18T13:47:01;9.50;;;7.05;;
62574;SDS011;53112;45.602;11.904;2022-12-18T13:49:38;9.80;;;6.88;;
62574;SDS011;53112;45.602;11.904;2022-12-18T13:52:18;10.32;;;6.63;;
62574;SDS011;53112;45.602;11.904;2022-12-18T13:54:53;10.63;;;7.00;;
62574;SDS011;53112;45.602;11.904;2022-12-18T13:57:29;9.73;;;7.05;;
62574;SDS011;53112;45.602;11.904;2022-12-18T13:59:57;10.77;;;7.68;;
62574;SDS011;53112;45.602;11.904;2022-12-18T14:02:25;9.13;;;6.18;;
62574;SDS011;53112;45.602;11.904;2022-12-18T14:04:53;10.02;;;7.43;;
62574;SDS011;53112;45.602;11.904;2022-12-18T14:07:21;10.50;;;7.57;;
62574;SDS011;53112;45.602;11.904;2022-12-18T14:09:50;9.40;;;6.82;;
62574;SDS011;53112;45.602;11.904;2022-12-18T14:20:34;9.15;;;6.50;;
62574;SDS011;53112;45.602;11.904;2022-12-18T14:23:00;10.52;;;7.13;;
62574;SDS011;53112;45.602;11.904;2022-12-18T14:25:27;11.35;;;6.90;;
62574;SDS011;53112;45.602;11.904;2022-12-18T14:28:10;9.82;;;6.70;;
62574;SDS011;53112;45.602;11.904;2022-12-18T14:30:40;9.27;;;6.30;;
62574;SDS011;53112;45.602;11.904;2022-12-18T14:35:34;10.40;;;7.03;;
62574;SDS011;53112;45.602;11.904;2022-12-18T14:38:10;13.00;;;8.50;;
62574;SDS011;53112;45.602;11.904;2022-12-18T14:40:51;11.00;;;7.18;;
62574;SDS011;53112;45.602;11.904;2022-12-18T14:43:38;9.25;;;6.50;;
62574;SDS011;53112;45.602;11.904;2022-12-18T14:46:06;11.07;;;6.93;;
62574;SDS011;53112;45.602;11.904;2022-12-18T14:48:53;10.60;;;6.85;;
62574;SDS011;53112;45.602;11.904;2022-12-18T14:51:24;11.45;;;7.05;;
62574;SDS011;53112;45.602;11.904;2022-12-18T14:53:55;10.80;;;7.50;;
62574;SDS011;53112;45.602;11.904;2022-12-18T14:56:35;11.32;;;7.50;;
62574;SDS011;53112;45.602;11.904;2022-12-18T14:59:18;11.80;;;7.05;;
62574;SDS011;53112;45.602;11.904;2022-12-18T15:01:54;10.53;;;7.57;;
62574;SDS011;53112;45.602;11.904;2022-12-18T15:04:35;10.70;;;6.95;;
62574;SDS011;53112;45.602;11.904;2022-12-18T15:09:35;9.80;;;6.47;;
62574;SDS011;53112;45.602;11.904;2022-12-18T15:12:01;10.23;;;6.38;;
62574;SDS011;53112;45.602;11.904;2022-12-18T15:14:32;11.20;;;6.80;;
62574;SDS011;53112;45.602;11.904;2022-12-18T15:17:00;11.07;;;6.72;;
62574;SDS011;53112;45.602;11.904;2022-12-18T15:19:39;11.30;;;6.95;;
62574;SDS011;53112;45.602;11.904;2022-12-18T15:22:16;12.27;;;7.20;;
62574;SDS011;53112;45.602;11.904;2022-12-18T15:24:48;12.70;;;7.37;;
62574;SDS011;53112;45.602;11.904;2022-12-18T15:27:25;12.48;;;7.72;;
62574;SDS011;53112;45.602;11.904;2022-12-18T15:32:34;14.70;;;8.68;;
62574;SDS011;53112;45.602;11.904;2022-12-18T15:40:02;15.27;;;9.00;;
62574;SDS011;53112;45.602;11.904;2022-12-18T15:42:29;14.98;;;9.40;;
62574;SDS011;53112;45.602;11.904;2022-12-18T15:45:14;16.55;;;9.95;;
62574;SDS011;53112;45.602;11.904;2022-12-18T15:47:40;15.90;;;9.77;;
62574;SDS011;53112;45.602;11.904;2022-12-18T15:50:09;14.98;;;8.43;;
62574;SDS011;53112;45.602;11.904;2022-12-18T15:52:42;16.15;;;9.63;;
62574;SDS011;53112;45.602;11.904;2022-12-18T15:55:14;15.48;;;9.05;;
62574;SDS011;53112;45.602;11.904;2022-12-18T15:58:10;15.77;;;9.02;;
62574;SDS011;53112;45.602;11.904;2022-12-18T16:00:37;12.75;;;8.00;;
62574;SDS011;53112;45.602;11.904;2022-12-18T16:03:05;15.70;;;9.27;;
62574;SDS011;53112;45.602;11.904;2022-12-18T16:05:31;16.15;;;10.20;;
62574;SDS011;53112;45.602;11.904;2022-12-18T16:07:57;16.10;;;9.23;;
62574;SDS011;53112;45.602;11.904;2022-12-18T16:10:24;15.25;;;8.48;;
62574;SDS011;53112;45.602;11.904;2022-12-18T16:12:51;15.75;;;8.60;;
62574;SDS011;53112;45.602;11.904;2022-12-18T16:15:17;16.90;;;8.82;;
62574;SDS011;53112;45.602;11.904;2022-12-18T16:17:44;21.30;;;11.18;;
62574;SDS011;53112;45.602;11.904;2022-12-18T16:22:41;19.38;;;11.10;;
62574;SDS011;53112;45.602;11.904;2022-12-18T16:25:19;20.75;;;11.70;;
62574;SDS011;53112;45.602;11.904;2022-12-18T16:27:48;23.10;;;11.75;;
62574;SDS011;53112;45.602;11.904;2022-12-18T16:30:15;23.15;;;12.15;;
62574;SDS011;53112;45.602;11.904;2022-12-18T16:32:42;22.83;;;12.40;;
62574;SDS011;53112;45.602;11.904;2022-12-18T16:35:12;23.95;;;13.35;;
62574;SDS011;53112;45.602;11.904;2022-12-18T16:37:39;21.35;;;12.35;;
62574;SDS011;53112;45.602;11.904;2022-12-18T16:40:06;19.55;;;11.50;;